Date,TemperatureHighF,TemperatureAvgF,TemperatureLowF,DewpointHighF,DewpointAvgF,DewpointLowF,HumidityHigh,HumidityAvg,HumidityLow,PressureMaxIn,PressureMinIn,WindSpeedMaxMPH,WindSpeedAvgMPH,GustSpeedMaxMPH,PrecipitationSumIn
2013-1-1,76.5,64.1,54.3,69.3,61.5,52.6,98,92,73,30.11,29.93,10,1,13,0.14
2013-1-2,54.3,49.5,42.7,52.6,46.6,41.5,96,90,82,30.21,30.01,9,1,12,0.07
2013-1-3,48.4,41.2,36.8,41.7,36.7,30.0,97,85,63,30.38,30.19,6,1,9,0.41
2013-1-4,58.1,44.0,34.3,36.4,32.2,28.8,83,65,37,30.45,30.33,8,1,11,0.00
2013-1-5,50.8,46.9,41.3,40.4,36.8,33.4,77,68,60,30.38,30.25,6,1,7,0.00
2013-1-6,50.8,47.1,42.8,47.9,44.0,40.2,95,89,69,30.30,30.20,5,0,7,0.14
2013-1-7,62.3,48.6,38.4,42.5,39.8,37.0,95,74,40,30.34,30.20,8,1,11,0.01
2013-1-8,67.9,57.8,47.2,60.7,52.2,40.8,89,82,73,30.26,30.15,8,1,10,0.00
2013-1-9,62.3,62.1,61.8,58.1,57.9,57.6,87,86,86,30.20,30.18,3,0,4,0.00
2013-1-13,76.4,72.3,63.5,71.8,69.8,62.3,96,92,84,30.03,29.94,5,2,12,0.03
2013-1-14,63.4,54.7,43.6,62.2,53.4,42.6,97,95,91,30.12,30.02,6,1,9,0.03
2013-1-15,68.7,55.0,43.9,66.5,53.9,43.1,98,96,89,30.09,29.94,5,0,7,0.23
2013-1-16,58.4,47.8,41.7,57.4,46.8,40.9,98,96,94,30.06,29.94,6,1,7,0.26
2013-1-17,51.3,42.4,36.0,40.5,37.1,33.3,97,82,60,30.37,30.05,15,2,17,0.03
2013-1-18,58.6,44.4,35.9,41.0,37.0,34.3,94,77,44,30.53,30.37,9,1,12,0.00
2013-1-19,64.7,49.1,37.2,48.4,41.4,34.7,95,77,51,30.41,30.25,5,0,7,0.00
2013-1-20,68.5,52.0,39.3,52.8,45.5,38.5,98,81,45,30.29,30.14,6,0,7,0.00
2013-1-21,66.9,54.5,43.4,48.1,45.1,40.0,96,73,45,30.22,30.13,7,0,10,0.00
2013-1-22,61.5,47.6,37.9,40.4,35.1,28.6,84,64,38,30.38,30.22,6,1,9,0.00
2013-1-23,68.6,52.3,36.8,52.6,45.0,34.8,95,78,52,30.42,30.30,8,0,9,0.00
2013-1-24,75.2,59.5,47.2,59.1,53.1,46.1,98,81,51,30.35,30.22,9,1,11,0.00
2013-1-27,60.4,59.8,57.9,59.5,58.7,57.1,97,96,95,30.28,30.26,0,0,3,0.00
2013-1-28,75.3,65.1,55.3,66.9,62.3,54.8,99,91,69,30.29,30.15,6,1,10,0.01
2013-1-29,77.2,71.0,67.0,72.0,69.0,65.8,98,94,83,30.15,29.86,9,1,11,0.33
2013-1-30,74.4,62.0,43.6,71.7,58.2,32.7,97,88,61,30.12,29.69,18,3,27,0.94
2013-1-31,60.9,47.5,35.1,39.9,33.8,28.1,91,63,30,30.33,30.12,9,1,11,0.00
2013-2-1,62.2,48.1,39.6,41.0,36.7,30.7,81,66,37,30.42,30.30,9,1,10,0.00
2013-2-2,67.3,50.3,32.3,53.2,39.3,26.2,94,68,40,30.37,30.19,8,1,11,0.00
2013-2-3,68.6,55.9,43.6,52.8,43.0,32.1,98,68,26,30.27,30.14,11,1,11,0.00
2013-2-4,63.7,54.1,44.7,54.1,44.1,35.5,96,70,52,30.14,30.00,4,0,5,0.09
2013-2-5,69.3,59.5,54.2,63.9,58.1,53.7,99,95,82,30.04,29.96,6,0,7,0.77
2013-2-6,72.5,61.4,53.3,61.7,58.3,52.8,99,90,67,30.16,30.02,11,1,11,0.02
2013-2-7,76.0,63.8,55.3,63.3,59.7,54.5,99,88,61,30.03,29.80,12,2,16,2.60
2013-2-8,74.5,60.8,50.9,62.2,55.6,50.6,99,85,54,30.16,29.95,11,1,11,0.00
2013-2-9,66.4,56.0,44.4,54.7,49.7,41.6,95,80,57,30.26,30.13,8,1,10,0.00
2013-2-10,71.1,65.3,56.1,70.5,63.4,54.4,98,94,89,30.13,29.97,12,2,15,0.12
2013-2-11,70.9,63.0,56.7,70.3,61.9,56.1,99,96,86,30.13,30.00,12,2,16,0.64
2013-2-12,72.0,62.4,55.5,71.3,61.8,55.0,100,98,95,30.06,29.76,11,2,18,1.07
2013-2-13,69.9,66.6,60.8,68.3,64.9,58.4,97,94,91,29.84,29.77,10,2,13,0.00
2013-2-14,43.0,41.5,40.2,41.3,40.3,39.4,97,96,93,30.12,30.10,0,0,0,0.00
2013-2-15,68.2,51.6,36.7,46.9,41.6,36.5,99,73,34,30.19,30.05,6,1,10,0.00
2013-2-16,53.4,48.8,35.7,42.5,32.2,17.2,76,55,26,30.30,30.10,10,2,18,0.27
2013-2-17,57.9,42.0,27.0,34.9,27.1,22.1,88,59,30,30.40,30.27,6,1,8,0.00
2013-2-18,64.9,54.2,39.1,56.2,45.9,35.0,98,75,52,30.30,30.03,14,2,23,0.00
2013-2-19,68.0,59.8,45.7,62.1,47.0,30.3,98,67,27,30.21,29.97,15,2,15,0.42
2013-2-20,59.1,47.8,39.5,34.2,29.3,23.9,71,50,28,30.29,30.09,7,1,12,0.00
2013-2-21,66.5,57.4,42.7,65.2,49.5,33.3,96,75,55,30.09,29.88,10,2,15,0.00
2013-2-22,70.7,66.0,61.6,68.9,63.5,55.2,99,92,68,29.99,29.86,8,1,12,2.47
2013-2-23,61.6,57.6,54.6,61.0,56.7,53.2,99,97,92,29.97,29.76,7,1,10,1.09
2013-2-24,70.3,59.1,47.6,59.3,54.3,47.3,99,85,62,30.01,29.82,7,1,10,0.43
2013-2-25,67.5,62.0,57.8,67.2,61.0,57.1,99,97,90,29.86,29.49,12,2,18,4.52
2013-2-26,65.3,55.9,49.8,64.4,45.7,39.1,97,70,46,29.93,29.53,15,2,18,0.00
2013-2-27,49.8,48.2,47.1,45.1,44.6,43.9,91,87,83,29.94,29.92,0,0,1,0.00
2013-3-8,74.5,55.4,37.9,47.0,41.1,35.1,97,65,25,30.32,30.19,5,1,8,0.00
2013-3-9,72.9,59.6,45.7,58.9,50.1,43.8,95,73,41,30.22,30.04,7,1,12,0.00
2013-3-10,74.0,66.0,59.4,65.0,61.3,57.7,94,85,73,30.06,29.92,17,3,21,0.00
2013-3-11,67.4,57.0,44.8,66.2,54.2,43.4,98,91,75,29.99,29.84,15,1,15,0.56
2013-3-12,66.8,52.1,39.3,43.7,39.5,36.3,95,65,38,30.20,29.99,9,1,12,0.00
2013-3-13,67.2,54.5,41.8,41.0,34.3,22.8,84,53,20,30.37,30.19,5,1,14,0.00
2013-3-14,68.1,52.0,39.0,41.6,30.6,21.5,77,47,21,30.45,30.30,11,1,11,0.00
2013-3-15,74.8,58.6,43.9,51.3,45.4,38.9,97,66,31,30.32,30.15,11,1,17,0.00
2013-3-16,76.6,62.8,48.5,58.3,53.7,47.4,98,75,44,30.15,29.99,13,1,17,0.00
2013-3-17,75.7,63.7,54.7,64.6,59.9,54.0,99,89,60,30.02,29.90,9,1,10,0.00
2013-3-18,82.2,70.6,61.7,70.3,66.3,60.0,97,87,65,29.93,29.78,11,1,14,0.00
2013-3-19,79.3,66.1,56.8,60.3,52.0,43.7,91,64,35,30.05,29.88,9,2,12,0.00
2013-3-20,67.1,60.3,46.6,43.9,37.9,31.8,67,44,27,30.12,29.98,7,2,13,0.00
2013-3-21,68.8,54.4,41.7,44.2,33.3,26.2,72,48,22,30.09,29.90,7,1,10,0.00
2013-3-22,67.8,59.2,48.9,59.8,51.2,42.5,90,75,60,29.94,29.85,11,2,14,0.08
2013-3-23,74.3,66.6,61.4,70.8,62.9,53.0,99,88,72,29.89,29.59,5,1,8,0.38
2013-3-24,81.0,66.3,48.0,69.8,53.3,32.8,98,65,38,29.95,29.57,15,2,17,0.01
2013-3-25,60.2,47.8,36.8,34.8,28.7,21.2,77,51,23,30.23,29.95,8,2,14,0.00
2013-3-26,57.6,43.3,32.9,30.4,27.7,25.8,79,56,32,30.38,30.23,9,1,12,0.00
2013-3-27,65.0,46.7,30.0,39.8,32.0,27.0,92,61,27,30.45,30.29,7,1,12,0.00
2013-3-28,72.8,52.9,38.2,44.4,37.4,29.3,97,64,22,30.38,30.24,7,1,9,0.00
2013-3-29,73.6,64.7,55.3,55.5,52.6,47.9,95,67,42,30.25,30.22,6,1,10,0.00
2013-3-30,77.6,63.8,51.5,60.2,56.0,50.7,99,79,42,30.22,30.04,6,1,14,0.00
2013-3-31,81.4,67.6,59.6,66.6,62.4,58.8,99,85,53,30.08,29.89,13,1,20,0.32
2013-4-1,76.8,62.1,54.9,62.4,58.6,53.5,99,90,50,30.09,29.92,5,0,9,0.01
2013-4-2,81.1,65.7,50.6,58.4,52.7,47.0,99,69,33,30.14,30.01,8,1,10,0.00
2013-4-3,64.2,59.0,53.7,62.0,56.7,52.7,99,92,79,30.08,29.73,21,1,27,1.52
2013-4-4,72.6,60.2,54.9,61.9,56.2,51.7,98,87,67,29.97,29.87,10,1,10,0.00
2013-4-5,69.8,56.5,49.7,51.9,49.4,46.9,94,79,50,30.12,29.96,10,1,12,0.00
2013-4-6,75.8,59.5,44.2,55.2,48.1,40.1,99,72,29,30.18,30.10,8,1,8,0.00
2013-4-7,77.3,62.7,48.8,62.3,56.6,48.1,99,83,51,30.15,30.04,5,1,10,0.00
2013-4-8,82.2,70.8,59.5,69.7,65.7,58.9,99,85,62,30.08,29.99,11,1,15,0.00
2013-4-9,82.2,74.0,68.6,71.6,69.3,66.1,97,86,69,30.09,29.97,14,2,15,0.00
2013-4-10,69.0,67.7,66.4,66.3,65.5,64.7,95,93,91,30.03,29.97,4,0,6,0.00
2013-4-13,65.9,63.6,60.9,57.8,57.2,56.6,87,80,74,29.96,29.93,1,0,3,0.00
2013-4-14,66.7,61.8,57.2,64.9,60.4,56.6,99,95,81,30.00,29.72,6,1,12,1.44
2013-4-15,80.0,69.5,64.0,74.0,67.9,63.7,99,95,79,30.04,29.83,4,0,7,1.71
2013-4-16,85.6,74.8,67.0,74.0,70.3,66.4,99,87,67,30.12,30.02,6,0,13,0.00
2013-4-17,84.5,74.5,67.3,75.2,69.6,65.9,99,86,61,30.13,30.01,6,1,10,0.00
2013-4-18,80.0,73.6,65.8,74.2,70.6,65.2,99,91,79,30.01,29.86,12,1,12,0.00
2013-4-19,76.0,56.5,43.5,73.5,54.9,42.9,98,95,78,30.18,29.81,9,1,13,1.16
2013-4-20,70.5,54.4,39.1,46.2,42.7,37.4,98,69,38,30.28,30.13,10,1,13,0.01
2013-4-21,76.5,60.4,45.3,55.0,47.6,42.6,94,67,36,30.24,30.11,8,1,10,0.00
2013-4-22,79.4,65.3,51.6,64.7,58.1,49.0,96,79,54,30.15,30.05,5,1,9,0.00
2013-4-23,79.8,68.4,58.7,66.5,63.1,58.1,99,85,61,30.13,30.04,6,1,10,0.00
2013-4-24,65.2,64.7,64.4,64.6,64.0,63.7,98,98,97,30.06,30.04,2,0,3,0.00
2013-4-25,77.6,64.4,54.6,63.0,55.5,49.2,98,75,48,30.30,30.16,5,1,8,0.00
2013-4-26,83.2,68.7,54.9,60.6,51.3,44.7,87,56,37,30.31,30.22,4,1,7,0.26
2013-4-27,83.4,71.3,59.2,70.7,64.9,58.3,98,82,53,30.23,30.05,7,1,9,0.00
2013-4-28,81.4,72.0,67.4,71.8,67.6,64.4,99,87,62,30.08,29.96,7,0,10,0.00
2013-4-29,84.8,72.1,65.1,69.6,65.9,62.6,97,83,50,30.00,29.89,4,0,5,0.02
2013-4-30,82.1,71.4,64.9,73.2,68.1,64.0,99,90,66,29.96,29.89,7,0,8,0.28
2013-5-1,73.8,68.7,62.6,71.8,67.8,62.0,99,97,91,29.94,29.86,10,1,11,2.53
2013-5-2,74.9,67.0,62.8,69.8,65.6,62.5,99,95,79,29.99,29.88,6,1,8,3.32
2013-5-3,75.3,64.3,48.4,67.7,62.1,47.6,99,93,77,29.97,29.81,8,1,13,0.38
2013-5-4,72.1,56.5,43.6,48.2,43.4,38.1,97,67,32,29.99,29.88,7,1,12,0.00
2013-5-5,68.3,58.7,48.7,57.2,47.7,42.7,94,69,44,30.01,29.86,13,1,16,0.00
2013-5-6,72.9,60.1,48.2,56.7,50.8,45.3,93,73,47,30.03,29.92,12,1,15,0.00
2013-5-7,79.0,65.7,53.6,61.9,58.1,52.2,97,79,52,30.05,29.97,6,0,10,0.00
2013-5-8,84.3,70.6,58.5,66.1,62.6,58.1,99,79,45,30.12,30.01,6,0,8,0.00
2013-5-9,85.3,72.7,60.6,70.0,64.2,59.8,99,77,48,30.15,30.06,7,1,10,0.00
2013-5-10,77.4,68.6,65.2,69.1,66.8,63.4,99,94,69,30.16,29.90,7,0,13,0.49
2013-5-11,77.8,68.5,62.2,70.9,66.5,61.6,99,94,77,30.07,29.95,5,0,7,0.40
2013-5-12,80.8,70.5,61.3,66.7,60.9,55.1,99,74,49,30.14,30.01,7,0,11,0.01
2013-5-13,80.6,66.3,51.1,56.2,49.3,41.2,86,58,29,30.29,30.13,7,1,11,0.00
2013-5-14,87.7,70.0,54.6,62.3,57.3,52.9,96,68,33,30.29,30.17,8,1,8,0.00
2013-5-15,87.3,73.1,59.2,64.4,59.7,52.9,98,67,36,30.23,30.05,7,1,9,0.00
2013-5-16,68.7,68.0,67.4,65.1,63.8,62.3,91,86,81,30.06,30.01,1,0,2,0.00
2013-5-24,90.1,82.5,67.7,70.4,64.5,58.2,73,55,45,30.17,30.09,5,1,7,0.00
2013-5-25,90.9,74.3,60.9,63.5,56.5,49.5,86,57,26,30.25,30.15,3,1,6,0.00
2013-5-26,89.7,69.5,62.5,72.3,63.0,56.2,97,83,38,30.22,30.13,7,0,9,0.02
2013-5-27,87.7,77.4,68.0,72.3,67.9,62.6,97,75,49,30.17,30.07,10,1,13,0.00
2013-5-28,88.7,75.7,62.8,74.4,69.2,62.2,99,82,53,30.10,30.04,6,1,11,0.00
2013-5-29,88.8,79.0,71.8,76.5,73.3,71.0,99,84,62,30.06,30.00,11,1,14,0.00
2013-5-30,87.3,79.6,74.7,75.2,73.5,72.1,95,82,63,30.07,29.99,10,2,15,0.00
2013-5-31,86.6,79.9,75.6,77.1,74.5,72.7,94,84,71,30.06,29.97,8,1,14,0.05
2013-6-1,87.5,78.9,75.7,79.2,75.8,73.5,97,90,73,30.02,29.94,6,1,9,0.30
2013-6-2,93.5,80.0,71.3,77.1,73.2,69.5,99,82,51,29.99,29.85,7,1,10,0.10
2013-6-3,88.4,78.2,70.5,78.8,74.7,70.2,99,90,67,29.93,29.84,4,0,6,0.02
2013-6-4,94.2,81.7,71.8,78.4,75.3,71.5,100,83,53,29.95,29.89,7,1,9,0.01
2013-6-5,78.2,76.8,75.9,75.4,74.7,74.2,95,93,91,29.94,29.90,2,0,3,0.00
2013-6-12,98.4,85.2,76.2,81.8,76.7,73.2,98,78,47,30.09,29.99,4,1,9,0.00
2013-6-13,96.8,86.8,76.9,79.3,75.6,72.3,95,72,47,30.04,29.86,6,1,10,2.04
2013-6-14,94.7,84.1,76.3,78.9,73.9,68.9,98,74,47,29.95,29.85,9,1,9,0.18
2013-6-15,76.3,74.8,73.5,69.2,68.4,67.7,83,80,78,29.95,29.93,2,0,2,0.00
2013-6-16,92.8,83.5,77.3,80.8,77.8,74.2,99,84,56,30.05,29.98,5,0,10,0.01
2013-6-17,94.1,83.3,76.4,79.0,77.1,74.3,98,83,54,30.02,29.94,7,1,13,0.00
2013-6-18,93.7,83.6,72.4,78.6,74.9,70.6,97,77,49,30.01,29.88,10,1,12,0.41
2013-6-19,88.3,79.1,71.6,77.6,73.9,71.2,99,85,62,30.04,29.93,4,0,5,0.01
2013-6-20,92.0,80.7,72.3,76.8,74.0,71.4,99,82,57,30.10,30.00,8,0,11,0.00
2013-6-26,80.2,79.4,78.3,77.0,76.6,75.9,93,91,90,30.02,30.00,0,0,1,0.00
2013-6-27,96.0,85.5,76.3,80.3,77.5,73.6,98,79,50,30.02,29.91,4,1,9,0.00
2013-6-28,97.4,86.7,78.8,82.4,78.8,77.0,97,79,54,29.93,29.75,8,1,12,2.20
2013-6-29,96.8,83.8,73.4,79.4,75.4,70.8,98,77,48,29.80,29.67,7,1,9,0.29
2013-6-30,94.2,82.1,71.8,77.0,71.2,64.8,99,73,40,29.78,29.70,7,0,7,0.00
2013-7-1,91.8,80.7,70.8,71.1,68.4,63.3,91,68,41,29.90,29.77,7,0,10,0.00
2013-7-2,93.6,81.3,70.5,72.4,70.0,67.0,89,71,45,30.00,29.89,4,0,6,0.00
2013-7-3,88.8,78.8,73.3,76.1,73.5,71.2,99,85,62,30.03,29.93,7,1,9,0.38
2013-7-4,88.0,77.6,70.9,78.4,74.7,70.0,99,91,70,30.01,29.91,5,0,8,0.85
2013-7-5,76.8,74.5,72.5,75.8,73.7,71.6,99,97,94,30.09,29.98,5,0,7,0.33
2013-7-6,78.5,74.2,71.5,76.0,73.2,71.2,99,97,89,30.06,29.99,4,0,4,2.51
2013-7-7,78.8,75.5,73.1,77.7,75.1,72.5,100,99,93,30.12,30.02,4,0,11,1.12
2013-7-8,87.8,77.4,73.3,80.3,75.6,72.9,100,94,75,30.18,30.09,6,0,9,0.01
2013-7-9,93.7,81.6,71.0,79.9,75.5,70.7,100,83,52,30.19,30.08,5,0,8,0.01
2013-7-10,91.4,80.6,75.4,80.1,76.4,74.1,98,88,63,30.12,29.97,6,0,9,0.00
2013-7-11,84.7,76.9,73.5,79.2,75.6,72.6,99,96,80,30.02,29.88,4,1,9,1.05
2013-7-12,93.7,77.2,70.9,80.6,73.5,69.7,99,89,59,29.93,29.84,4,0,6,1.11
2013-7-13,91.9,77.4,70.3,79.5,73.6,69.7,99,89,65,29.98,29.87,6,0,9,0.01
2013-7-14,94.1,80.0,69.8,76.8,72.3,68.9,98,80,53,30.01,29.92,5,1,8,0.00
2013-7-15,88.2,79.4,74.2,78.4,75.7,73.6,99,89,70,30.13,30.02,4,1,8,0.00
2013-7-16,89.6,81.3,74.1,78.6,75.2,71.9,97,82,65,30.18,30.09,7,2,11,0.00
2013-7-21,91.0,79.1,74.0,79.1,75.5,73.1,98,89,63,30.06,29.98,6,1,12,0.22
2013-7-22,87.1,76.8,72.1,81.0,75.1,71.5,99,94,71,30.08,30.00,7,1,15,1.05
2013-7-23,93.0,81.9,72.4,80.5,76.7,72.1,100,86,62,30.05,29.92,9,1,12,0.01
2013-7-24,91.9,82.0,73.0,80.5,76.9,71.9,97,85,65,29.96,29.88,8,1,11,0.09
2013-7-25,93.1,81.3,72.4,78.9,75.3,71.7,99,83,61,30.01,29.87,6,0,9,0.05
2013-7-26,95.6,82.7,71.9,77.8,73.5,70.5,99,76,48,30.06,29.96,5,0,8,0.00
2013-7-27,84.3,77.5,71.9,78.1,74.7,71.3,99,92,80,29.99,29.88,8,0,8,1.09
2013-7-28,91.8,79.8,71.2,79.9,76.3,70.9,100,90,65,30.00,29.86,5,0,7,0.23
2013-7-29,93.2,81.5,74.6,81.3,77.5,74.3,99,89,64,30.12,29.98,10,0,10,0.01
2013-7-30,93.3,83.0,75.4,80.3,77.8,74.8,99,86,65,30.16,30.08,5,0,7,0.00
2013-8-1,95.5,81.2,73.5,80.2,75.5,71.8,99,85,56,30.00,29.90,7,1,14,1.45
2013-8-2,96.5,82.9,72.2,79.8,75.6,71.9,100,81,48,30.02,29.92,2,0,5,0.01
2013-8-3,96.4,80.8,75.8,80.4,76.7,72.4,99,89,47,30.07,29.98,5,0,6,0.00
2013-8-4,97.8,85.9,77.9,81.0,77.6,75.5,96,78,51,30.08,29.97,6,0,7,0.00
2013-8-5,94.5,81.5,75.3,83.2,77.0,74.3,99,87,62,30.04,29.95,6,0,11,1.23
2013-8-24,83.4,77.0,72.6,77.1,74.1,71.7,99,91,78,30.13,30.00,2,0,9,0.01
2013-8-25,87.2,77.8,72.1,77.2,74.2,71.7,99,89,69,30.20,30.10,4,1,11,0.01
2013-8-26,89.9,80.9,72.7,74.3,70.1,66.5,97,72,49,30.22,30.10,5,0,8,0.00
2013-8-27,89.6,77.5,66.4,71.3,67.4,64.4,95,74,46,30.14,30.03,3,0,8,0.00
2013-8-28,94.5,78.7,67.0,73.1,69.8,65.8,96,76,46,30.09,30.00,5,0,6,0.00
2013-8-29,94.1,81.4,69.2,74.6,70.8,68.0,97,73,45,30.08,29.97,5,0,7,0.00
2013-8-30,94.9,83.2,73.3,76.2,73.3,71.0,93,74,51,30.03,29.91,5,0,6,0.00
2013-8-31,94.4,82.2,74.9,83.4,75.3,70.9,95,80,58,29.97,29.86,5,0,7,0.23
2013-9-1,91.3,78.8,75.4,81.5,75.6,73.2,96,90,67,29.95,29.87,4,0,8,0.67
2013-9-2,94.0,83.5,76.5,80.9,77.8,75.7,99,84,61,29.99,29.88,4,1,8,0.00
2013-9-3,95.7,80.6,72.2,81.7,76.0,71.4,99,88,54,29.99,29.86,8,0,12,3.09
2013-9-4,92.2,78.2,71.0,81.2,75.5,70.6,100,92,64,30.08,29.96,4,0,6,2.48
2013-9-5,94.3,80.5,72.9,80.6,75.8,72.6,100,87,55,30.13,30.02,5,0,8,0.04
2013-9-6,93.2,81.1,72.6,77.5,74.0,71.0,99,81,52,30.11,29.99,4,0,6,0.00
2013-9-7,95.2,80.9,69.7,75.1,72.1,68.9,98,77,46,30.06,29.97,3,0,6,0.00
2013-9-8,95.5,81.6,71.1,76.5,73.4,70.2,98,79,47,30.00,29.93,4,0,6,0.00
2013-9-9,95.3,81.5,71.5,77.7,73.5,70.6,98,79,49,30.05,29.97,6,0,7,0.00
2013-9-10,94.0,80.9,73.8,76.9,74.1,71.5,96,81,55,30.13,30.03,5,0,9,0.00
2013-9-11,75.1,74.4,73.8,73.9,73.3,72.5,97,96,96,30.11,30.08,1,0,2,0.00
2013-9-15,92.1,77.3,69.0,74.8,67.2,62.3,87,72,54,30.07,29.98,3,0,5,0.00
2013-9-17,78.6,78.0,77.4,75.3,74.5,74.2,90,89,87,30.05,30.04,2,0,5,0.00
2013-9-18,85.9,79.3,74.4,76.6,73.9,72.0,93,84,68,30.09,30.01,3,0,8,0.00
2013-9-19,90.6,80.9,73.5,76.1,73.0,69.4,93,78,56,30.08,29.99,4,1,8,0.05
2013-9-20,90.2,79.9,72.4,78.8,75.6,71.5,98,87,67,30.02,29.85,7,0,9,0.00
2013-9-21,79.9,76.6,70.7,77.9,75.2,70.1,98,95,88,29.84,29.72,6,0,8,0.35
2013-9-22,81.8,73.0,68.1,72.4,68.9,65.3,99,87,71,29.81,29.74,8,1,8,0.10
2013-9-23,91.7,81.3,66.6,78.3,73.5,64.1,95,78,61,29.89,29.80,5,0,6,0.00
2013-9-24,87.1,76.7,70.4,79.6,74.8,69.5,99,94,76,29.90,29.77,6,0,8,1.49
2013-9-25,90.3,77.1,71.1,76.0,72.6,70.8,99,87,57,29.83,29.76,7,0,7,0.01
2013-9-26,92.4,79.4,69.8,77.2,72.0,67.7,99,81,47,29.92,29.81,3,0,5,0.00
2013-9-30,83.4,76.4,70.5,72.1,70.3,68.7,95,82,65,29.99,29.93,3,0,5,0.00
2013-10-1,90.0,77.1,68.2,74.4,70.7,67.2,98,82,56,30.06,29.98,3,0,6,0.00
2013-10-2,82.5,73.2,71.6,76.6,71.7,70.4,98,95,80,30.08,30.00,3,0,7,0.24
2013-10-3,88.4,78.1,71.5,78.1,74.8,71.2,99,90,70,30.07,29.98,6,0,8,0.39
2013-10-4,89.1,78.5,72.1,79.4,75.1,71.5,99,90,66,30.06,29.99,8,0,8,0.04
2013-10-5,88.3,79.3,74.0,78.5,75.6,73.2,99,89,68,30.04,29.94,7,0,9,0.00
2013-10-6,79.0,73.8,67.1,76.4,73.0,65.9,99,97,91,29.94,29.79,5,0,8,2.45
2013-10-7,77.2,68.9,61.7,65.7,58.0,53.2,96,70,45,29.97,29.87,9,1,11,0.00
2013-10-29,69.1,65.3,62.6,64.8,63.0,61.5,96,93,86,30.24,30.22,0,0,1,0.00
2013-10-30,80.1,69.5,59.7,71.6,65.8,59.1,98,89,68,30.23,30.08,4,0,9,0.01
2013-10-31,80.7,75.2,69.7,73.3,70.6,67.7,96,86,73,30.09,29.84,7,1,14,0.13
2013-11-20,57.0,56.2,55.1,55.0,54.3,53.4,96,93,91,30.17,30.15,1,0,2,0.00
2013-11-21,71.8,61.9,54.7,63.7,58.5,52.6,94,89,75,30.26,30.16,3,1,6,0.00
2013-11-22,78.8,68.5,60.7,71.7,65.4,59.6,97,90,78,30.23,30.14,3,0,6,0.03
2013-11-23,66.6,59.4,49.0,65.7,56.7,41.8,97,91,76,30.29,30.16,10,1,12,0.00
2013-11-24,53.6,45.7,39.5,41.7,31.2,26.9,76,58,38,30.39,30.29,13,2,15,0.00
2013-11-25,58.4,49.9,39.4,57.3,43.2,28.7,96,78,64,30.32,29.90,8,2,10,0.14
2013-11-26,66.4,53.9,45.2,65.8,52.8,44.4,98,96,92,29.90,29.72,9,2,12,1.63
2013-11-27,48.4,40.1,31.0,42.4,32.4,26.5,97,76,47,30.40,29.93,5,1,14,0.06
2013-11-28,49.3,33.1,26.3,33.0,25.8,23.2,89,76,40,30.49,30.37,3,0,7,0.00
2013-11-29,60.3,41.5,28.6,33.9,29.5,25.3,92,67,28,30.55,30.43,5,0,8,0.00
2013-11-30,68.1,47.5,33.3,50.4,39.4,30.3,96,76,46,30.46,30.27,4,0,7,0.00
2013-12-1,69.3,51.7,39.9,53.2,46.4,39.1,98,84,45,30.30,30.02,5,0,6,0.00
2013-12-2,73.3,59.7,47.5,59.5,53.8,46.7,98,82,53,30.02,29.81,6,0,8,0.00
2013-12-3,74.8,67.0,58.8,68.0,64.5,57.7,98,92,78,29.87,29.77,8,1,13,0.09
2013-12-4,77.5,71.7,66.4,72.9,69.9,65.2,98,94,83,29.98,29.85,7,1,10,0.17
2013-12-11,62.1,48.8,35.6,46.9,39.3,32.9,90,71,46,30.42,30.31,5,0,8,0.00
2013-12-12,56.1,47.1,37.0,39.6,32.9,28.0,81,59,35,30.51,30.39,5,1,13,1.22
2013-12-13,59.3,47.4,32.5,48.9,38.7,26.8,81,72,59,30.39,30.03,4,0,5,0.00
2013-12-14,74.9,63.1,51.5,68.3,59.6,47.0,96,88,77,30.03,29.82,8,1,14,0.09
2013-12-15,51.3,45.0,38.9,48.7,39.2,35.7,91,80,68,30.27,30.00,9,1,12,0.00
2013-12-17,67.1,54.0,41.5,43.2,40.2,35.8,89,63,36,30.31,30.24,5,0,10,0.00
2013-12-18,66.4,49.9,40.5,43.4,40.2,37.6,94,73,36,30.39,30.26,6,1,9,0.00
2013-12-19,69.8,46.9,38.9,60.3,44.5,37.9,96,92,69,30.26,30.09,7,0,11,0.00
2013-12-20,74.9,66.2,58.0,69.4,63.9,56.9,97,93,82,30.13,30.00,8,1,11,0.00
2013-12-21,75.7,72.7,69.6,72.6,70.9,68.4,97,94,90,30.00,29.85,11,2,13,0.04
2013-12-22,74.9,60.8,53.5,72.4,59.5,52.7,97,95,88,30.14,29.84,11,1,15,3.95
2013-12-23,54.7,47.2,37.5,53.9,44.5,33.1,97,90,81,30.43,30.10,7,1,11,0.02
2013-12-24,51.7,38.9,30.7,34.6,30.8,27.2,91,74,47,30.52,30.40,9,1,11,0.00
2013-12-25,48.1,38.4,27.4,35.9,29.8,25.1,92,73,50,30.42,30.32,7,0,11,0.00
2013-12-26,54.4,44.3,35.8,40.1,35.9,31.1,84,73,53,30.39,30.29,6,0,9,0.00
2013-12-27,59.9,50.5,40.9,39.5,37.1,35.0,80,61,42,30.42,30.29,9,1,11,0.00
2013-12-28,53.0,47.1,45.3,46.4,44.9,39.5,97,93,62,30.29,29.95,8,1,11,3.60
2013-12-29,56.4,48.5,41.0,50.4,46.4,40.0,97,93,78,30.14,29.93,6,0,7,0.00
2013-12-30,59.5,50.0,41.1,51.7,46.8,40.3,97,90,71,30.31,30.11,2,0,3,0.01
2013-12-31,50.4,45.0,42.6,47.7,41.8,39.2,94,89,83,30.43,30.29,6,1,8,0.04
2014-1-1,58.3,49.1,42.7,55.7,47.5,41.1,96,94,90,30.35,30.06,3,0,4,0.16
2014-1-2,59.4,52.3,38.5,56.9,47.6,30.1,96,85,63,30.28,29.92,11,1,13,0.63